Time;durP1;ratioP1;P1;durP2;ratioP2;P2;SDS_P1;SDS_P2;PMS_P1;PMS_P2;Temp;Humidity;BMP_temperature;BMP_pressure;BME280_temperature;BME280_humidity;BME280_pressure;Samples;Min_cycle;Max_cycle;Signal;HPM_P1;HPM_P2
2022/11/18 00:01:24;;;;;;;;;;;11.70;93.40;;;12.15;60.98;96890.31;4978878;28;124389;-75
2022/11/18 00:03:51;;;;;;;;;;;11.70;93.40;;;12.17;61.09;96887.97;4979090;28;118969;-74
2022/11/18 00:06:19;;;;;;;;;;;11.70;93.40;;;12.16;61.19;96881.63;4945363;28;118287;-76
2022/11/18 00:08:46;;;;;;;;;;;13.90;94.40;;;12.13;61.17;96882.34;4966423;28;124764;-75
2022/11/18 00:14:18;;;;;;;;;;;11.70;93.40;;;12.03;61.47;96882.19;4984433;28;119998;-75
2022/11/18 00:16:59;;;;;;;;;;;11.60;93.30;;;11.96;61.47;96873.78;4983876;28;118090;-74
2022/11/18 00:19:28;;;;;;;;;;;11.60;93.30;;;11.90;61.70;96878.78;4967506;28;124365;-74
2022/11/18 00:21:55;;;;;;;;;;;11.50;93.30;;;11.86;61.80;96884.28;4962550;28;124780;-76
2022/11/18 00:24:22;;;;;;;;;;;11.50;93.40;;;11.82;61.67;96879.81;4967768;28;119591;-74
2022/11/18 00:26:48;;;;;;;;;;;11.40;93.70;;;11.79;61.59;96875.78;4950215;28;118486;-75
2022/11/18 00:29:15;;;;;;;;;;;11.40;93.50;;;11.78;62.13;96871.44;4967252;28;124514;-75
2022/11/18 00:31:41;;;;;;;;;;;11.30;93.60;;;11.77;62.04;96883.69;4950753;28;124600;-75
2022/11/18 00:34:10;;;;;;;;;;;11.40;93.70;;;11.75;62.38;96886.03;4967900;28;119194;-74
2022/11/18 00:36:37;;;;;;;;;;;11.30;93.70;;;11.75;61.83;96885.22;4965449;28;119836;-75
2022/11/18 00:39:03;;;;;;;;;;;11.30;93.70;;;11.75;62.25;96883.25;4962173;28;123334;-75
2022/11/18 00:42:49;;;;;;;;;;;11.30;93.80;;;11.78;62.61;96887.25;4964417;28;124191;-74
2022/11/18 00:44:16;;;;;;;;;;;11.30;93.90;;;11.77;62.49;96892.00;4970444;28;119351;-75
2022/11/18 00:46:42;;;;;;;;;;;11.30;93.90;;;11.79;63.03;96888.84;4982604;28;119005;-74
2022/11/18 00:49:08;;;;;;;;;;;11.30;94.10;;;11.79;62.92;96903.47;4981861;28;124103;-75
2022/11/18 00:51:35;;;;;;;;;;;11.30;94.10;;;11.80;62.96;96891.25;4947500;28;124007;-74
2022/11/18 00:54:02;;;;;;;;;;;9.90;94.00;;;11.82;63.01;96899.16;4965264;28;119589;-75
2022/11/18 00:56:28;;;;;;;;;;;11.30;94.20;;;11.84;62.77;96891.31;4965272;28;117847;-75
2022/11/18 00:58:54;;;;;;;;;;;11.40;94.30;;;11.85;63.29;96888.19;4965878;28;123968;-74
2022/11/18 01:01:21;;;;;;;;;;;11.40;94.30;;;11.85;63.12;96896.47;4982593;28;123871;-74
2022/11/18 01:03:47;;;;;;;;;;;11.40;94.40;;;11.86;63.23;96897.31;4952349;28;118451;-75
2022/11/18 01:06:14;;;;;;;;;;;11.40;94.40;;;11.84;63.38;96892.09;4946430;28;118752;-74
2022/11/18 01:08:40;;;;;;;;;;;11.40;94.40;;;11.82;63.13;96888.94;4963732;28;124099;-75
2022/11/18 01:13:52;;;;;;;;;;;11.30;94.40;;;11.79;63.52;96900.69;4981339;28;120376;-75
2022/11/18 01:16:23;;;;;;;;;;;11.40;94.60;;;11.79;63.37;96897.94;4948291;28;119257;-75
2022/11/18 01:18:49;;;;;;;;;;;11.30;94.60;;;11.79;63.75;96905.44;4966118;28;124019;-75
2022/11/18 01:21:16;;;;;;;;;;;11.30;94.60;;;11.74;63.67;96892.72;4968582;28;124136;-74
2022/11/18 01:23:43;;;;;;;;;;;11.30;94.60;;;11.71;63.68;96898.97;4948079;28;121073;-74
2022/11/18 01:26:11;;;;;;;;;;;11.30;94.60;;;11.68;63.78;96888.63;4968318;28;120163;-75
2022/11/18 01:28:37;;;;;;;;;;;11.30;94.70;;;11.67;64.15;96892.59;4966293;28;124147;-75
2022/11/18 01:31:05;;;;;;;;;;;11.20;94.70;;;11.67;63.89;96890.63;4947344;28;124013;-74
2022/11/18 01:33:31;;;;;;;;;;;11.30;94.80;;;11.69;63.88;96895.78;4968154;28;119377;-75
2022/11/18 01:35:57;;;;;;;;;;;11.30;94.90;;;11.69;63.79;96895.78;4947991;28;118867;-74
2022/11/18 01:38:24;;;;;;;;;;;11.20;94.80;;;11.71;64.05;96898.97;4966266;28;124579;-75
2022/11/18 01:40:50;;;;;;;;;;;11.30;95.00;;;11.72;64.09;96900.59;4965298;28;124639;-75
2022/11/18 01:43:19;;;;;;;;;;;11.30;95.00;;;11.71;64.50;96899.78;4944798;28;120006;-74
2022/11/18 01:45:47;;;;;;;;;;;11.30;95.00;;;11.72;64.23;96911.66;4949762;28;119215;-74
2022/11/18 01:48:14;;;;;;;;;;;11.30;95.00;;;11.70;64.20;96908.44;4946183;28;124171;-75
2022/11/18 01:50:46;;;;;;;;;;;11.30;95.00;;;11.70;64.39;96919.50;4964596;28;124115;-74
2022/11/18 01:53:20;;;;;;;;;;;11.30;95.00;;;11.67;64.23;96912.75;4950620;28;118408;-74
2022/11/18 01:55:49;;;;;;;;;;;11.20;95.00;;;11.64;64.67;96916.25;4964892;28;118694;-74
2022/11/18 01:58:25;;;;;;;;;;;11.20;95.10;;;11.65;64.53;96922.56;4950414;28;122503;-75
2022/11/18 02:00:52;;;;;;;;;;;11.20;95.10;;;11.64;64.27;96923.75;4966686;28;123360;-74
2022/11/18 02:03:19;;;;;;;;;;;11.20;95.10;;;11.65;64.42;96928.09;4965783;28;119888;-75
2022/11/18 02:05:46;;;;;;;;;;;11.20;95.10;;;11.67;64.69;96931.31;4966304;28;117564;-74
2022/11/18 02:08:13;;;;;;;;;;;11.20;95.20;;;11.71;64.79;96929.41;4958167;28;122933;-74
2022/11/18 02:10:39;;;;;;;;;;;11.20;95.30;;;11.74;64.78;96923.16;4934055;28;123816;-75
2022/11/18 02:13:06;;;;;;;;;;;11.30;95.30;;;11.77;64.44;96930.72;4976091;28;120162;-74
2022/11/18 02:16:05;;;;;;;;;;;11.30;95.30;;;11.81;64.64;96936.31;4983269;28;118750;-74
2022/11/18 02:18:50;;;;;;;;;;;11.30;95.40;;;11.80;64.71;96940.25;4956935;28;124197;-74
2022/11/18 02:21:17;;;;;;;;;;;11.30;95.40;;;11.79;64.58;96944.19;4950185;28;123411;-74
2022/11/18 02:23:54;;;;;;;;;;;11.30;95.40;;;11.79;64.77;96939.44;4964903;28;119506;-74
2022/11/18 02:26:30;;;;;;;;;;;11.30;95.40;;;11.83;64.88;96937.56;4949912;28;118945;-74
2022/11/18 02:29:22;;;;;;;;;;;11.40;95.50;;;11.85;65.03;96943.53;4965194;28;124859;-74
2022/11/18 02:31:58;;;;;;;;;;;11.40;95.50;;;11.88;64.82;96939.25;4964377;28;126886;-74
2022/11/18 02:35:03;;;;;;;;;;;11.40;95.50;;;11.88;64.80;96942.81;4966027;28;118631;-75
2022/11/18 02:37:48;;;;;;;;;;;11.40;95.50;;;11.86;64.52;96947.13;4962860;28;118573;-73
2022/11/18 02:40:22;;;;;;;;;;;11.40;95.40;;;11.79;64.75;96953.28;4950691;28;123865;-74
2022/11/18 02:42:57;;;;;;;;;;;11.30;95.40;;;11.75;64.80;96944.13;4949316;28;125248;-75
2022/11/18 02:45:27;;;;;;;;;;;11.30;95.40;;;11.70;64.93;96953.50;4963094;28;119248;-75
2022/11/18 02:47:54;;;;;;;;;;;11.30;95.40;;;11.67;65.06;96945.16;4983319;28;118874;-74
2022/11/18 02:50:23;;;;;;;;;;;11.20;95.50;;;11.65;64.99;96947.47;4968770;28;124150;-75
2022/11/18 02:52:53;;;;;;;;;;;11.20;95.50;;;11.63;65.40;96947.03;4953883;28;123823;-79
2022/11/18 02:55:21;;;;;;;;;;;11.20;95.50;;;11.63;65.11;96950.63;4987388;28;119178;-75
2022/11/18 02:57:48;;;;;;;;;;;11.30;95.70;;;11.67;65.52;96958.97;4987178;28;118449;-78
2022/11/18 03:00:15;;;;;;;;;;;11.20;95.70;;;11.69;65.36;96951.13;4955286;28;124744;-77
2022/11/18 03:02:47;;;;;;;;;;;11.20;95.70;;;11.69;65.50;96971.28;4972048;28;122926;-75
2022/11/18 03:05:29;;;;;;;;;;;11.20;95.70;;;11.71;64.91;96970.91;4954339;28;121032;-75
2022/11/18 03:08:02;;;;;;;;;;;11.30;95.70;;;11.68;65.15;96974.41;4956203;28;118892;-75
2022/11/18 03:10:36;;;;;;;;;;;11.30;95.70;;;11.65;65.15;96984.22;4956408;28;124010;-75
2022/11/18 03:13:21;;;;;;;;;;;11.20;95.70;;;11.62;65.37;96990.50;4971311;28;124030;-74
2022/11/18 03:15:55;;;;;;;;;;;11.20;95.70;;;11.58;65.57;96992.41;4944503;28;119019;-75
2022/11/18 03:18:27;;;;;;;;;;;11.20;95.70;;;11.55;65.67;96992.31;4950998;28;118856;-74
2022/11/18 03:21:30;;;;;;;;;;;11.20;95.80;;;11.53;65.36;96991.88;4968934;28;123893;-74
2022/11/18 03:24:20;;;;;;;;;;;11.20;95.80;;;11.47;65.75;96989.41;4962592;28;123969;-75
2022/11/18 03:27:07;;;;;;;;;;;11.10;95.80;;;11.42;65.43;97000.75;4951207;28;119144;-74
2022/11/18 03:29:35;;;;;;;;;;;11.10;95.80;;;11.40;65.86;97010.56;4971284;28;118469;-74
2022/11/18 03:32:05;;;;;;;;;;;11.00;95.80;;;11.39;65.84;97009.78;4950140;28;124836;-74
2022/11/18 03:35:04;;;;;;;;;;;11.00;95.90;;;11.39;65.78;97015.31;4967105;28;123767;-76
2022/11/18 03:37:32;;;;;;;;;;;11.10;96.00;;;11.37;66.15;97020.38;4958213;28;119629;-74
2022/11/18 03:40:03;;;;;;;;;;;11.00;96.00;;;11.36;66.04;97027.06;4960563;28;119497;-75
2022/11/18 03:42:52;;;;;;;;;;;11.00;96.00;;;11.35;66.24;97031.00;4950075;28;123947;-74
2022/11/18 03:45:22;;;;;;;;;;;11.00;96.10;;;11.32;66.49;97042.00;4943376;28;123747;-75
2022/11/18 03:47:54;;;;;;;;;;;11.00;96.10;;;11.28;66.50;97037.19;4945383;28;120129;-74
2022/11/18 03:50:25;;;;;;;;;;;10.90;96.20;;;11.27;66.70;97043.84;4959437;28;118687;-75
2022/11/18 03:52:52;;;;;;;;;;;10.90;96.20;;;11.25;66.66;97053.66;4967341;28;124163;-74
2022/11/18 03:55:25;;;;;;;;;;;10.90;96.30;;;11.24;66.70;97057.59;4949182;28;124540;-74
2022/11/18 03:58:13;;;;;;;;;;;10.90;96.30;;;11.21;66.57;97059.13;4980293;28;120298;-75
2022/11/18 04:00:43;;;;;;;;;;;10.80;96.30;;;11.20;66.25;97053.94;4969966;28;120021;-75
2022/11/18 04:03:10;;;;;;;;;;;10.80;96.30;;;11.18;66.61;97059.84;4954078;28;124568;-75
2022/11/18 04:05:41;;;;;;;;;;;10.80;96.30;;;11.16;66.23;97058.59;4953831;28;123379;-75
2022/11/18 04:08:26;;;;;;;;;;;10.80;96.20;;;11.15;65.82;97060.56;4979706;28;118802;-74
2022/11/18 04:11:04;;;;;;;;;;;10.70;96.10;;;11.15;66.09;97060.56;4968704;28;118241;-74
2022/11/18 04:13:33;;;;;;;;;;;10.80;96.10;;;11.15;65.92;97062.50;4954618;28;124206;-74
2022/11/18 04:15:59;;;;;;;;;;;10.80;96.00;;;11.17;65.53;97062.97;4975413;28;123450;-74
2022/11/18 04:18:26;;;;;;;;;;;10.80;96.00;;;11.20;65.51;97070.53;4967861;28;118936;-75
2022/11/18 04:20:52;;;;;;;;;;;10.80;95.90;;;11.23;65.67;97073.41;4952341;28;117687;-75
2022/11/18 04:23:19;;;;;;;;;;;10.80;95.90;;;11.22;65.43;97070.97;4968293;28;123984;-74
2022/11/18 04:25:45;;;;;;;;;;;10.80;95.80;;;11.20;65.27;97082.41;4984087;28;123759;-75
2022/11/18 04:28:11;;;;;;;;;;;10.80;95.70;;;11.16;65.00;97078.75;4968700;28;118858;-75
2022/11/18 04:30:38;;;;;;;;;;;10.80;95.70;;;11.14;65.50;97091.31;4969276;28;118901;-74
2022/11/18 04:33:04;;;;;;;;;;;10.80;95.60;;;11.12;65.51;97093.63;4967124;28;123021;-74
2022/11/18 04:35:30;;;;;;;;;;;10.80;95.60;;;11.10;65.23;97087.69;4952286;28;122812;-74
2022/11/18 04:37:57;;;;;;;;;;;10.70;95.60;;;11.11;65.44;97103.09;4984226;28;119986;-74
2022/11/18 04:40:23;;;;;;;;;;;10.70;95.60;;;11.08;65.15;97098.28;4964588;28;118892;-74
2022/11/18 04:42:49;;;;;;;;;;;10.70;95.60;;;11.06;65.28;97104.97;4981863;28;124191;-74
2022/11/18 04:45:16;;;;;;;;;;;10.70;95.70;;;11.02;65.35;97093.03;4968116;28;123959;-74
2022/11/18 04:47:42;;;;;;;;;;;10.70;95.70;;;11.01;65.56;97096.94;4966500;28;120426;-74
2022/11/18 04:50:09;;;;;;;;;;;10.60;95.70;;;11.00;65.34;97089.81;4967524;28;120252;-75
2022/11/18 04:52:35;;;;;;;;;;;10.60;95.60;;;10.95;65.10;97087.31;4963396;28;124562;-74
2022/11/18 04:55:01;;;;;;;;;;;10.60;95.50;;;10.91;64.72;97094.72;4958047;28;124266;-74
2022/11/18 04:57:27;;;;;;;;;;;10.60;95.40;;;10.89;65.08;97101.78;4981261;28;119449;-74
2022/11/18 04:59:54;;;;;;;;;;;10.50;95.30;;;10.87;64.99;97099.34;4966885;28;118464;-75
2022/11/18 05:02:20;;;;;;;;;;;10.50;95.30;;;10.86;65.08;97103.28;4966515;28;124159;-74
2022/11/18 05:04:48;;;;;;;;;;;10.50;95.30;;;10.81;64.77;97107.09;4966061;28;123955;-74
2022/11/18 05:07:14;;;;;;;;;;;10.40;95.30;;;10.78;64.62;97109.78;4966595;28;119456;-75
2022/11/18 05:09:40;;;;;;;;;;;10.40;95.30;;;10.77;64.66;97111.75;4966322;28;118978;-74
2022/11/18 05:14:56;;;;;;;;;;;10.40;95.40;;;10.72;65.44;97119.47;4969779;28;124577;-75
2022/11/18 05:17:22;;;;;;;;;;;10.40;95.40;;;10.72;65.35;97119.47;4963450;28;119542;-74
2022/11/18 05:19:48;;;;;;;;;;;10.30;95.40;;;10.70;65.61;97116.28;4948461;28;119379;-75
2022/11/18 05:22:15;;;;;;;;;;;10.30;95.50;;;10.73;65.64;97121.09;4980857;28;124102;-74
2022/11/18 05:24:41;;;;;;;;;;;10.30;95.50;;;10.76;65.68;97120.38;4948282;28;123956;-74
2022/11/18 05:27:07;;;;;;;;;;;10.40;95.60;;;10.76;65.62;97131.44;4966489;28;118847;-75
2022/11/18 05:29:34;;;;;;;;;;;10.40;95.60;;;10.77;65.46;97122.81;4948488;28;118701;-75
2022/11/18 05:32:00;;;;;;;;;;;10.40;95.70;;;10.78;65.25;97127.16;4967481;28;124570;-75
2022/11/18 05:34:28;;;;;;;;;;;10.40;95.70;;;10.78;65.29;97129.13;4965441;28;124081;-75
2022/11/18 05:36:54;;;;;;;;;;;10.40;95.90;;;10.76;65.35;97125.91;4963029;28;120555;-75
2022/11/18 05:39:20;;;;;;;;;;;10.40;95.60;;;10.76;64.98;97136.97;4949960;28;119825;-74
2022/11/18 05:44:31;;;;;;;;;;;10.30;95.50;;;10.74;64.94;97139.25;4967749;28;124672;-74
2022/11/18 05:46:59;;;;;;;;;;;10.30;95.50;;;10.74;65.13;97144.78;4950800;28;119403;-74
2022/11/18 05:49:25;;;;;;;;;;;10.30;95.50;;;10.73;64.82;97151.47;4966044;28;118698;-75
2022/11/18 05:51:51;;;;;;;;;;;10.30;95.40;;;10.72;64.78;97149.84;4967103;28;122905;-74
2022/11/18 05:54:20;;;;;;;;;;;10.30;95.40;;;10.70;65.09;97154.97;4980788;28;124241;-74
2022/11/18 05:56:47;;;;;;;;;;;10.30;95.40;;;10.71;65.08;97151.03;4966129;28;119449;-73
2022/11/18 05:59:14;;;;;;;;;;;10.30;95.40;;;10.72;64.71;97152.63;4950344;28;118641;-74
2022/11/18 06:02:01;;;;;;;;;;;10.30;95.40;;;10.72;64.75;97156.22;4951344;28;123566;-74
2022/11/18 06:04:36;;;;;;;;;;;10.30;95.40;;;10.73;64.74;97155.03;4950560;28;123970;-76
2022/11/18 06:07:09;;;;;;;;;;;10.30;95.40;;;10.72;65.03;97158.13;4949754;28;119892;-74
2022/11/18 06:09:38;;;;;;;;;;;10.30;95.40;;;10.71;64.75;97173.91;4952590;28;118244;-75
2022/11/18 06:12:05;;;;;;;;;;;10.30;95.40;;;10.71;64.60;97173.13;4962397;28;124676;-75
2022/11/18 06:14:39;;;;;;;;;;;10.30;95.30;;;10.72;64.58;97169.19;4933410;28;122805;-75
2022/11/18 06:17:10;;;;;;;;;;;10.30;95.30;;;10.70;64.89;97174.28;4942618;28;118465;-74
2022/11/18 06:19:36;;;;;;;;;;;10.30;95.30;;;10.70;64.53;97177.84;4951276;28;119339;-74
2022/11/18 06:22:03;;;;;;;;;;;10.30;95.30;;;10.68;64.62;97176.59;4962337;28;124614;-77
2022/11/18 06:24:29;;;;;;;;;;;10.30;95.30;;;10.67;64.60;97183.28;4965512;28;123416;-75
2022/11/18 06:26:56;;;;;;;;;;;10.30;95.30;;;10.65;64.86;97188.34;4970825;28;119600;-75
2022/11/18 06:29:25;;;;;;;;;;;10.20;95.30;;;10.62;65.06;97178.81;4961883;28;119856;-76
2022/11/18 06:31:51;;;;;;;;;;;10.20;95.30;;;10.60;65.13;97181.91;4951932;28;124523;-74
2022/11/18 06:34:17;;;;;;;;;;;10.20;95.30;;;10.59;64.92;97187.81;4952116;28;123862;-75
2022/11/18 06:36:44;;;;;;;;;;;10.20;95.30;;;10.59;64.76;97198.84;4961591;28;119440;-74
2022/11/18 06:39:10;;;;;;;;;;;10.20;95.40;;;10.60;65.37;97194.91;4964951;28;118819;-80
2022/11/18 06:41:37;;;;;;;;;;;10.20;95.40;;;10.60;64.97;97195.72;4964010;28;125026;-74
2022/11/18 06:44:03;;;;;;;;;;;10.20;95.40;;;10.63;65.16;97198.94;4955428;28;125477;-76
2022/11/18 06:49:14;;;;;;;;;;;10.20;95.50;;;10.66;64.88;97204.56;4941417;28;119482;-75
2022/11/18 06:51:40;;;;;;;;;;;10.20;95.50;;;10.67;64.46;97208.16;4934444;28;123556;-75
2022/11/18 06:54:08;;;;;;;;;;;10.20;95.40;;;10.68;64.81;97210.53;4954321;28;123891;-73
2022/11/18 06:56:35;;;;;;;;;;;10.20;95.30;;;10.68;64.72;97212.50;4952915;28;119377;-76
2022/11/18 06:59:02;;;;;;;;;;;10.20;95.30;;;10.68;64.38;97215.25;4969750;28;118953;-74
2022/11/18 07:01:30;;;;;;;;;;;10.20;95.20;;;10.65;64.68;97216.78;4974575;28;124175;-74
2022/11/18 07:03:58;;;;;;;;;;;10.20;95.20;;;10.66;64.73;97220.31;4948642;28;123790;-75
2022/11/18 07:06:26;;;;;;;;;;;10.20;95.20;;;10.64;64.40;97214.34;4962147;28;119315;-75
2022/11/18 07:08:53;;;;;;;;;;;10.20;95.20;;;10.60;64.51;97223.34;4954093;28;118016;-74
2022/11/18 07:11:22;;;;;;;;;;;10.20;95.20;;;10.59;64.77;97224.50;4951277;28;124411;-76
2022/11/18 07:13:49;;;;;;;;;;;10.20;95.20;;;10.63;64.90;97223.78;4969566;28;125794;-75
2022/11/18 07:16:17;;;;;;;;;;;10.20;95.20;;;10.64;64.79;97233.69;4954121;28;120559;-74
2022/11/18 07:18:45;;;;;;;;;;;10.20;95.30;;;10.64;64.31;97245.56;4942896;28;119547;-75
2022/11/18 07:21:13;;;;;;;;;;;10.20;95.30;;;10.65;64.36;97246.34;4961260;28;124147;-75
2022/11/18 07:23:41;;;;;;;;;;;10.20;95.30;;;10.63;65.00;97243.13;4980958;28;124320;-75
2022/11/18 07:26:07;;;;;;;;;;;10.20;95.30;;;10.61;64.88;97247.06;4983223;28;119152;-75
2022/11/18 07:28:34;;;;;;;;;;;10.20;95.30;;;10.62;64.56;97258.91;4981622;28;119147;-77
2022/11/18 07:31:01;;;;;;;;;;;10.20;95.30;;;10.61;64.89;97258.09;4987763;28;123840;-74
2022/11/18 07:33:28;;;;;;;;;;;10.20;95.30;;;10.61;64.37;97262.81;4970010;28;124680;-77
2022/11/18 07:35:54;;;;;;;;;;;10.20;95.30;;;10.59;65.00;97260.41;4952788;28;118388;-79
2022/11/18 07:38:21;;;;;;;;;;;10.20;95.30;;;10.59;64.52;97267.91;4941607;28;118017;-74
2022/11/18 07:40:47;;;;;;;;;;;10.20;95.30;;;10.60;64.57;97261.22;4988573;28;123203;-74
2022/11/18 07:43:13;;;;;;;;;;;10.20;95.30;;;10.58;64.79;97258.78;4985797;28;122605;-78
2022/11/18 07:45:39;;;;;;;;;;;10.20;95.30;;;10.59;64.58;97271.47;4971774;28;118419;-73
2022/11/18 07:48:06;;;;;;;;;;;10.20;95.30;;;10.61;64.96;97274.69;4944030;28;118622;-74
2022/11/18 07:50:35;;;;;;;;;;;10.20;95.30;;;10.63;64.79;97277.06;4930461;28;123701;-76
2022/11/18 07:53:01;;;;;;;;;;;10.20;95.30;;;10.65;64.84;97285.03;4947875;28;123692;-76
2022/11/18 07:55:27;;;;;;;;;;;10.20;95.30;;;10.66;64.66;97281.09;4948862;28;119336;-76
2022/11/18 07:57:55;;;;;;;;;;;10.20;95.40;;;10.67;64.95;97291.00;4943516;28;117761;-77
2022/11/18 08:00:21;;;;;;;;;;;10.20;95.40;;;10.69;65.02;97294.19;4958463;28;123949;-75
2022/11/18 08:02:51;;;;;;;;;;;10.20;95.40;;;10.72;64.67;97296.25;4935011;28;124500;-76
2022/11/18 08:05:18;;;;;;;;;;;10.30;95.40;;;10.73;64.82;97297.88;4946912;28;120677;-75
2022/11/18 08:07:44;;;;;;;;;;;10.30;95.50;;;10.76;65.02;97305.47;4945876;28;119550;-75
2022/11/18 08:10:10;;;;;;;;;;;10.30;95.50;;;10.76;65.08;97314.56;4924550;28;124186;-74
2022/11/18 08:12:37;;;;;;;;;;;10.30;95.50;;;10.78;64.64;97305.94;4946627;28;124174;-74
2022/11/18 08:15:03;;;;;;;;;;;10.30;95.50;;;10.81;64.83;97313.50;4932988;28;118364;-74
2022/11/18 08:17:29;;;;;;;;;;;10.40;95.50;;;10.83;64.86;97317.53;4928569;28;118375;-77
2022/11/18 08:19:56;;;;;;;;;;;10.40;95.60;;;10.86;64.93;97320.75;4932371;28;124687;-76
2022/11/18 08:22:22;;;;;;;;;;;10.40;95.70;;;10.89;65.28;97334.66;4947322;28;124308;-76
2022/11/18 08:24:48;;;;;;;;;;;10.40;95.80;;;10.90;65.26;97333.50;4948833;28;121503;-76
2022/11/18 08:27:15;;;;;;;;;;;10.40;95.70;;;10.87;65.13;97331.44;4948512;28;118209;-75
2022/11/18 08:29:41;;;;;;;;;;;10.40;95.60;;;10.84;64.82;97332.16;4928540;28;124335;-78
2022/11/18 08:32:08;;;;;;;;;;;10.40;95.60;;;10.86;64.85;97329.84;4947258;28;124123;-76
2022/11/18 08:34:34;;;;;;;;;;;10.40;95.60;;;10.87;65.08;97342.50;4946845;28;119491;-75
2022/11/18 08:37:01;;;;;;;;;;;10.40;95.60;;;10.87;65.05;97336.97;4949789;28;117750;-75
2022/11/18 08:39:27;;;;;;;;;;;10.40;95.60;;;10.84;64.86;97335.69;4946617;28;124179;-75
2022/11/18 08:41:53;;;;;;;;;;;10.50;95.60;;;10.80;64.95;97342.28;4932493;28;124537;-75
2022/11/18 08:44:19;;;;;;;;;;;10.40;95.60;;;10.81;65.12;97341.94;4953223;28;119400;-76
2022/11/18 08:46:46;;;;;;;;;;;10.60;95.70;;;10.81;65.38;97341.94;4969281;28;118837;-75
2022/11/18 08:49:12;;;;;;;;;;;10.40;96.00;;;10.82;65.18;97345.50;4966287;28;124776;-75
2022/11/18 08:51:38;;;;;;;;;;;10.40;95.70;;;10.85;65.54;97336.50;4965895;28;122922;-75
2022/11/18 08:54:04;;;;;;;;;;;10.40;95.80;;;10.91;65.33;97348.09;4983040;28;119703;-75
2022/11/18 08:56:31;;;;;;;;;;;10.50;95.90;;;10.94;65.48;97353.75;4955750;28;119827;-75
2022/11/18 08:58:57;;;;;;;;;;;10.50;95.90;;;10.99;65.58;97355.47;4950887;28;123142;-75
2022/11/18 09:01:23;;;;;;;;;;;10.50;95.90;;;11.01;65.48;97356.72;4977476;28;124598;-75
2022/11/18 09:03:50;;;;;;;;;;;10.50;95.90;;;11.03;65.23;97357.16;4936371;28;118837;-74
2022/11/18 09:06:20;;;;;;;;;;;10.60;95.90;;;11.04;65.33;97356.03;4948562;28;118937;-74
2022/11/18 09:08:47;;;;;;;;;;;10.60;95.90;;;11.06;65.45;97358.44;4954163;28;124459;-74
2022/11/18 09:11:18;;;;;;;;;;;10.60;95.90;;;11.04;65.60;97360.72;4944939;28;126644;-74
2022/11/18 09:13:44;;;;;;;;;;;10.60;95.80;;;11.07;65.45;97362.81;4938975;28;119010;-76
2022/11/18 09:16:11;;;;;;;;;;;10.60;95.90;;;11.09;64.96;97368.78;4961852;28;118781;-75
2022/11/18 09:18:37;;;;;;;;;;;10.60;95.90;;;11.08;65.61;97367.19;4946678;28;124128;-75
2022/11/18 09:21:06;;;;;;;;;;;10.60;95.90;;;11.08;65.22;97374.69;4964166;28;124532;-72
2022/11/18 09:23:35;;;;;;;;;;;10.60;95.90;;;11.05;65.36;97374.22;4950416;28;117693;-76
2022/11/18 09:26:04;;;;;;;;;;;10.60;95.90;;;11.03;65.89;97378.47;4985730;28;118825;-77
2022/11/18 09:28:31;;;;;;;;;;;10.60;96.00;;;11.00;65.70;97376.41;4963993;28;124251;-75
2022/11/18 09:30:57;;;;;;;;;;;10.60;96.10;;;10.95;65.98;97377.47;4966168;28;123481;-75
2022/11/18 09:33:24;;;;;;;;;;;10.60;96.10;;;10.94;66.21;97384.16;4976920;28;119678;-78
2022/11/18 09:35:50;;;;;;;;;;;10.50;96.10;;;10.96;66.39;97381.84;4966048;28;118901;-76
2022/11/18 09:38:16;;;;;;;;;;;10.60;96.20;;;11.01;66.19;97389.88;4965578;28;123227;-76
2022/11/18 09:40:57;;;;;;;;;;;10.60;96.30;;;11.06;66.41;97388.84;4967119;28;124576;-75
2022/11/18 09:43:51;;;;;;;;;;;10.60;96.30;;;11.08;66.26;97392.06;4948500;28;120140;-77
2022/11/18 09:46:37;;;;;;;;;;;10.40;96.30;;;11.13;66.58;97391.81;4957052;28;119617;-75
2022/11/18 09:49:13;;;;;;;;;;;10.70;96.50;;;11.16;66.19;97395.84;4963335;28;124146;-77
2022/11/18 09:51:45;;;;;;;;;;;10.70;96.50;;;11.16;66.35;97398.59;4946373;28;123956;-78
2022/11/18 09:54:20;;;;;;;;;;;10.70;96.50;;;11.21;66.55;97401.91;4963779;28;120130;-78
2022/11/18 09:56:47;;;;;;;;;;;10.80;96.60;;;11.23;66.41;97399.63;4968613;28;118907;-76
2022/11/18 09:59:15;;;;;;;;;;;10.70;96.60;;;11.23;66.54;97399.63;4947206;28;124907;-76
2022/11/18 10:01:41;;;;;;;;;;;10.80;96.60;;;11.27;66.70;97402.47;4963602;28;123696;-80
2022/11/18 10:04:16;;;;;;;;;;;10.80;96.60;;;11.30;66.24;97401.75;4978580;28;119624;-75
2022/11/18 10:06:44;;;;;;;;;;;10.80;96.60;;;11.30;66.27;97404.53;4950817;28;119516;-75
2022/11/18 10:09:28;;;;;;;;;;;10.80;96.60;;;11.33;66.43;97405.78;4945380;28;124464;-76
2022/11/18 10:12:03;;;;;;;;;;;10.90;96.60;;;11.36;66.80;97416.94;4955772;28;123964;-75
2022/11/18 10:14:48;;;;;;;;;;;10.90;96.70;;;11.39;66.28;97407.97;4959184;28;119893;-75
2022/11/18 10:17:33;;;;;;;;;;;10.90;96.70;;;11.41;66.34;97421.44;4946996;28;119259;-75
2022/11/18 10:20:14;;;;;;;;;;;10.90;96.70;;;11.43;66.27;97424.66;4950018;28;122989;-76
2022/11/18 10:22:59;;;;;;;;;;;10.90;96.60;;;11.45;66.38;97416.81;4964053;28;124067;-76
2022/11/18 10:25:25;;;;;;;;;;;10.90;96.60;;;11.48;66.17;97422.44;4966995;28;118979;-77
2022/11/18 10:27:51;;;;;;;;;;;11.00;96.70;;;11.52;66.36;97418.97;4964980;28;118937;-76
2022/11/18 10:30:23;;;;;;;;;;;11.00;96.70;;;11.58;66.30;97432.19;4961390;28;124741;-77
2022/11/18 10:32:53;;;;;;;;;;;11.10;96.70;;;11.62;66.12;97426.75;4946799;28;123347;-75
2022/11/18 10:35:30;;;;;;;;;;;11.10;96.70;;;11.67;66.29;97429.28;4961072;28;120471;-76
2022/11/18 10:38:11;;;;;;;;;;;11.10;96.70;;;11.73;66.09;97427.84;4960057;28;120237;-76
2022/11/18 10:41:00;;;;;;;;;;;11.20;96.80;;;11.79;65.91;97431.97;4967560;28;124707;-77
2022/11/18 10:43:52;;;;;;;;;;;11.20;96.80;;;11.82;66.28;97442.34;4970120;28;123728;-76
2022/11/18 10:46:28;;;;;;;;;;;11.20;96.80;;;11.88;66.22;97434.63;4963906;28;119665;-76
2022/11/18 10:49:08;;;;;;;;;;;11.30;96.90;;;11.96;66.30;97430.09;4976095;28;96871;-77
2022/11/18 10:51:40;;;;;;;;;;;11.40;96.90;;;12.02;66.41;97428.66;4953998;28;124878;-75
2022/11/18 10:54:08;;;;;;;;;;;11.40;96.90;;;12.03;65.99;97431.03;4962635;28;124271;-75
2022/11/18 10:56:51;;;;;;;;;;;11.40;96.80;;;12.00;66.05;97429.00;4974368;28;119573;-76
2022/11/18 10:59:40;;;;;;;;;;;11.50;96.80;;;11.98;66.06;97430.50;4963743;28;119037;-75
2022/11/18 11:02:19;;;;;;;;;;;11.50;96.80;;;11.94;65.92;97434.00;4962432;28;123540;-75
2022/11/18 11:04:47;;;;;;;;;;;11.50;96.70;;;11.89;66.11;97431.47;4979724;28;124038;-76
2022/11/18 11:07:37;;;;;;;;;;;11.40;96.60;;;11.85;65.91;97438.88;4966290;28;120415;-77
2022/11/18 11:10:03;;;;;;;;;;;11.40;96.70;;;11.81;66.45;97440.72;4958326;28;118492;-77
2022/11/18 11:12:45;;;;;;;;;;;10.70;96.50;;;11.80;66.11;97441.88;4972257;28;124182;-75
2022/11/18 11:15:19;;;;;;;;;;;11.40;96.80;;;11.78;66.07;97449.72;4956246;28;124072;-78
2022/11/18 11:18:40;;;;;;;;;;;11.30;96.80;;;11.73;66.64;97450.78;4950473;28;119504;-85
2022/11/18 11:20:37;;;;;;;;;;;11.30;96.80;;;11.69;66.97;97446.34;4955603;28;118523;-79
2022/11/18 11:23:08;;;;;;;;;;;11.30;96.90;;;11.65;66.87;97453.72;4984628;28;123582;-85
2022/11/18 11:25:43;;;;;;;;;;;11.30;96.90;;;11.64;66.94;97452.13;4977320;28;123461;-77
2022/11/18 11:28:18;;;;;;;;;;;11.20;97.00;;;11.61;67.20;97447.28;4966671;28;120478;-78
2022/11/18 11:30:53;;;;;;;;;;;11.20;97.00;;;11.60;66.98;97453.97;4983649;28;118827;-77
2022/11/18 11:33:26;;;;;;;;;;;11.20;97.10;;;11.61;67.45;97448.09;4946637;28;124249;-77
2022/11/18 11:36:20;;;;;;;;;;;11.20;97.10;;;11.61;66.95;97439.00;4942832;28;124178;-78
2022/11/18 11:39:25;;;;;;;;;;;11.20;97.10;;;11.69;66.83;97438.84;4975591;28;118606;-78